Terminal Aerodrome Forecast
Issued by NWS

Home | Current Version | Previous Version | Text Only | Print | Product List | Glossary On
Versions: 1 2 3 4 5 6 7 8 9 10 11 12
673
FTUS44 KTSA 080525
TAFMLC
TAF
KMLC 080525Z 0806/0906 31011KT P6SM SCT100 BKN120
     FM081500 33015G32KT P6SM FEW050
     FM090000 33009G16KT P6SM SKC=

USA.gov is the U.S. government's official web portal to all federal, state and local government web resources and services.